Lilly, Pennsylvania
Current Conditions -  °F | °C
As of 6:37 AM on Tuesday 21 Oct 2014 (Local Time) from KJST Reporting Station
Light Rain Light Rain  
Wind Chill: 42°   Ceiling: 200
Heat Index: 47°   Visibility: 0.25mi
Dew Point: 45°   Wind: 10mph
Humidity: 93%   Direction: 250°WSW
Pressure: 29.84"   Gusts: NA
Location:  40.43°N, 78.62°W
Report Text: KJST 211037Z AUTO 25009KT 1/4SM -RA FG VV002 08/07 A2984 RMK AO2 P0001 T00830072
Loading
Personal Weather Stations






























Interactive Weather Map
Tropical Storm Tracking
New forecast layout! Learn more

10-Day Weather Forecast

Advertisements
Track Severe Weather on mobile